<?xml version="1.0" encoding="UTF-8" standalone="no" ?>
<gpx xmlns="http://www.topografix.com/GPX/1/1" xmlns:xsi="http://www.w3.org/2001/XMLSchema-instance" xsi:schemaLocation="http://www.topografix.com/GPX/1/1 http://www.topografix.com/GPX/1/1/gpx.xsd" version="1.1" creator="VisuGPX - https://www.visugpx.com">
  <metadata>
    <name>ImnE33rYT1</name>
    <desc><![CDATA[

]]></desc>
  </metadata>
  <trk>
    <name><![CDATA[ImnE33rYT1_1]]></name>
    <extensions>
      <line xmlns="http://www.topografix.com/GPX/gpx_style/0/2">
        <color>0400ff</color>
        <width>4</width>
      </line>
    </extensions>
    <trkseg>
      <trkpt lat="43.19299" lon="6.02601">
        <ele>181.83</ele>
        <time>2022-09-17T07:56:05Z</time>
      </trkpt>
      <trkpt lat="43.19296" lon="6.02605">
        <ele>181.35</ele>
        <time>2022-09-17T07:56:06Z</time>
      </trkpt>
      <trkpt lat="43.19294" lon="6.02609">
        <ele>180.38</ele>
        <time>2022-09-17T07:56:07Z</time>
      </trkpt>
      <trkpt lat="43.1929" lon="6.02613">
        <ele>179.9</ele>
        <time>2022-09-17T07:56:08Z</time>
      </trkpt>
      <trkpt lat="43.19287" lon="6.02617">
        <ele>179.42</ele>
        <time>2022-09-17T07:56:09Z</time>
      </trkpt>
      <trkpt lat="43.19284" lon="6.02622">
        <ele>178.94</ele>
        <time>2022-09-17T07:56:10Z</time>
      </trkpt>
      <trkpt lat="43.19281" lon="6.02627">
        <ele>177.98</ele>
        <time>2022-09-17T07:56:11Z</time>
      </trkpt>
      <trkpt lat="43.19278" lon="6.02631">
        <ele>177.02</ele>
        <time>2022-09-17T07:56:12Z</time>
      </trkpt>
      <trkpt lat="43.19274" lon="6.02635">
        <ele>176.06</ele>
        <time>2022-09-17T07:56:13Z</time>
      </trkpt>
      <trkpt lat="43.19269" lon="6.02639">
        <ele>175.58</ele>
        <time>2022-09-17T07:56:14Z</time>
      </trkpt>
      <trkpt lat="43.19264" lon="6.02642">
        <ele>174.62</ele>
        <time>2022-09-17T07:56:15Z</time>
      </trkpt>
      <trkpt lat="43.19258" lon="6.02645">
        <ele>174.62</ele>
        <time>2022-09-17T07:56:16Z</time>
      </trkpt>
      <trkpt lat="43.19252" lon="6.02648">
        <ele>174.62</ele>
        <time>2022-09-17T07:56:17Z</time>
      </trkpt>
      <trkpt lat="43.19236" lon="6.02655">
        <ele>173.66</ele>
        <time>2022-09-17T07:56:20Z</time>
      </trkpt>
      <trkpt lat="43.1923" lon="6.02658">
        <ele>172.69</ele>
        <time>2022-09-17T07:56:21Z</time>
      </trkpt>
      <trkpt lat="43.19223" lon="6.0266">
        <ele>172.69</ele>
        <time>2022-09-17T07:56:22Z</time>
      </trkpt>
      <trkpt lat="43.19216" lon="6.02662">
        <ele>173.66</ele>
        <time>2022-09-17T07:56:23Z</time>
      </trkpt>
      <trkpt lat="43.19209" lon="6.02662">
        <ele>173.17</ele>
        <time>2022-09-17T07:56:24Z</time>
      </trkpt>
      <trkpt lat="43.19203" lon="6.02661">
        <ele>173.17</ele>
        <time>2022-09-17T07:56:25Z</time>
      </trkpt>
      <trkpt lat="43.19196" lon="6.0266">
        <ele>172.69</ele>
        <time>2022-09-17T07:56:26Z</time>
      </trkpt>
      <trkpt lat="43.19189" lon="6.02658">
        <ele>172.21</ele>
        <time>2022-09-17T07:56:27Z</time>
      </trkpt>
      <trkpt lat="43.19156" lon="6.02644">
        <ele>171.73</ele>
        <time>2022-09-17T07:56:32Z</time>
      </trkpt>
      <trkpt lat="43.19151" lon="6.02643">
        <ele>172.21</ele>
        <time>2022-09-17T07:56:33Z</time>
      </trkpt>
      <trkpt lat="43.19145" lon="6.02643">
        <ele>172.21</ele>
        <time>2022-09-17T07:56:34Z</time>
      </trkpt>
      <trkpt lat="43.1914" lon="6.02644">
        <ele>172.69</ele>
        <time>2022-09-17T07:56:35Z</time>
      </trkpt>
      <trkpt lat="43.19135" lon="6.02645">
        <ele>172.69</ele>
        <time>2022-09-17T07:56:36Z</time>
      </trkpt>
      <trkpt lat="43.19094" lon="6.02668">
        <ele>171.25</ele>
        <time>2022-09-17T07:56:49Z</time>
      </trkpt>
      <trkpt lat="43.19066" lon="6.02694">
        <ele>172.21</ele>
        <time>2022-09-17T07:57:02Z</time>
      </trkpt>
      <trkpt lat="43.19038" lon="6.02717">
        <ele>170.77</ele>
        <time>2022-09-17T07:57:17Z</time>
      </trkpt>
      <trkpt lat="43.19009" lon="6.02737">
        <ele>172.21</ele>
        <time>2022-09-17T07:57:34Z</time>
      </trkpt>
      <trkpt lat="43.18982" lon="6.02747">
        <ele>179.42</ele>
        <time>2022-09-17T07:57:46Z</time>
      </trkpt>
      <trkpt lat="43.18948" lon="6.02754">
        <ele>187.59</ele>
        <time>2022-09-17T07:58:06Z</time>
      </trkpt>
      <trkpt lat="43.18927" lon="6.02783">
        <ele>189.04</ele>
        <time>2022-09-17T07:58:21Z</time>
      </trkpt>
      <trkpt lat="43.18911" lon="6.02844">
        <ele>198.17</ele>
        <time>2022-09-17T07:58:41Z</time>
      </trkpt>
      <trkpt lat="43.18899" lon="6.02906">
        <ele>198.65</ele>
        <time>2022-09-17T07:58:59Z</time>
      </trkpt>
      <trkpt lat="43.18882" lon="6.02984">
        <ele>200.57</ele>
        <time>2022-09-17T07:59:17Z</time>
      </trkpt>
      <trkpt lat="43.18853" lon="6.03042">
        <ele>206.82</ele>
        <time>2022-09-17T07:59:33Z</time>
      </trkpt>
      <trkpt lat="43.18814" lon="6.03078">
        <ele>210.19</ele>
        <time>2022-09-17T07:59:48Z</time>
      </trkpt>
      <trkpt lat="43.18771" lon="6.03111">
        <ele>214.03</ele>
        <time>2022-09-17T08:00:04Z</time>
      </trkpt>
      <trkpt lat="43.18727" lon="6.03119">
        <ele>214.51</ele>
        <time>2022-09-17T08:00:18Z</time>
      </trkpt>
      <trkpt lat="43.18709" lon="6.03116">
        <ele>213.07</ele>
        <time>2022-09-17T08:00:23Z</time>
      </trkpt>
      <trkpt lat="43.18645" lon="6.03103">
        <ele>210.19</ele>
        <time>2022-09-17T08:00:37Z</time>
      </trkpt>
      <trkpt lat="43.18641" lon="6.03104">
        <ele>210.19</ele>
        <time>2022-09-17T08:00:38Z</time>
      </trkpt>
      <trkpt lat="43.18637" lon="6.03108">
        <ele>210.19</ele>
        <time>2022-09-17T08:00:39Z</time>
      </trkpt>
      <trkpt lat="43.18633" lon="6.03112">
        <ele>210.19</ele>
        <time>2022-09-17T08:00:40Z</time>
      </trkpt>
      <trkpt lat="43.18631" lon="6.03117">
        <ele>210.19</ele>
        <time>2022-09-17T08:00:41Z</time>
      </trkpt>
      <trkpt lat="43.1863" lon="6.03123">
        <ele>210.19</ele>
        <time>2022-09-17T08:00:42Z</time>
      </trkpt>
      <trkpt lat="43.18629" lon="6.0313">
        <ele>210.19</ele>
        <time>2022-09-17T08:00:43Z</time>
      </trkpt>
      <trkpt lat="43.18628" lon="6.03136">
        <ele>210.19</ele>
        <time>2022-09-17T08:00:44Z</time>
      </trkpt>
      <trkpt lat="43.18627" lon="6.03143">
        <ele>210.19</ele>
        <time>2022-09-17T08:00:45Z</time>
      </trkpt>
      <trkpt lat="43.18626" lon="6.0315">
        <ele>210.19</ele>
        <time>2022-09-17T08:00:46Z</time>
      </trkpt>
      <trkpt lat="43.18617" lon="6.03178">
        <ele>211.63</ele>
        <time>2022-09-17T08:00:50Z</time>
      </trkpt>
      <trkpt lat="43.18613" lon="6.03184">
        <ele>212.11</ele>
        <time>2022-09-17T08:00:51Z</time>
      </trkpt>
      <trkpt lat="43.18609" lon="6.03189">
        <ele>211.63</ele>
        <time>2022-09-17T08:00:52Z</time>
      </trkpt>
      <trkpt lat="43.18603" lon="6.03193">
        <ele>211.63</ele>
        <time>2022-09-17T08:00:53Z</time>
      </trkpt>
      <trkpt lat="43.18598" lon="6.03197">
        <ele>211.15</ele>
        <time>2022-09-17T08:00:54Z</time>
      </trkpt>
      <trkpt lat="43.18565" lon="6.03209">
        <ele>209.7</ele>
        <time>2022-09-17T08:00:59Z</time>
      </trkpt>
      <trkpt lat="43.18558" lon="6.03209">
        <ele>209.22</ele>
        <time>2022-09-17T08:01:00Z</time>
      </trkpt>
      <trkpt lat="43.18551" lon="6.03207">
        <ele>209.22</ele>
        <time>2022-09-17T08:01:01Z</time>
      </trkpt>
      <trkpt lat="43.18544" lon="6.03205">
        <ele>209.22</ele>
        <time>2022-09-17T08:01:02Z</time>
      </trkpt>
      <trkpt lat="43.18538" lon="6.03202">
        <ele>209.22</ele>
        <time>2022-09-17T08:01:03Z</time>
      </trkpt>
      <trkpt lat="43.18531" lon="6.03198">
        <ele>209.7</ele>
        <time>2022-09-17T08:01:04Z</time>
      </trkpt>
      <trkpt lat="43.18526" lon="6.03193">
        <ele>210.19</ele>
        <time>2022-09-17T08:01:05Z</time>
      </trkpt>
      <trkpt lat="43.1852" lon="6.03187">
        <ele>210.19</ele>
        <time>2022-09-17T08:01:06Z</time>
      </trkpt>
      <trkpt lat="43.18505" lon="6.03172">
        <ele>210.19</ele>
        <time>2022-09-17T08:01:09Z</time>
      </trkpt>
      <trkpt lat="43.18499" lon="6.03169">
        <ele>210.19</ele>
        <time>2022-09-17T08:01:10Z</time>
      </trkpt>
      <trkpt lat="43.18493" lon="6.03169">
        <ele>210.19</ele>
        <time>2022-09-17T08:01:11Z</time>
      </trkpt>
      <trkpt lat="43.18487" lon="6.03172">
        <ele>210.19</ele>
        <time>2022-09-17T08:01:12Z</time>
      </trkpt>
      <trkpt lat="43.18481" lon="6.03178">
        <ele>210.19</ele>
        <time>2022-09-17T08:01:13Z</time>
      </trkpt>
      <trkpt lat="43.18477" lon="6.03185">
        <ele>210.19</ele>
        <time>2022-09-17T08:01:14Z</time>
      </trkpt>
      <trkpt lat="43.18474" lon="6.03194">
        <ele>210.67</ele>
        <time>2022-09-17T08:01:15Z</time>
      </trkpt>
      <trkpt lat="43.18471" lon="6.03202">
        <ele>210.19</ele>
        <time>2022-09-17T08:01:16Z</time>
      </trkpt>
      <trkpt lat="43.18469" lon="6.03211">
        <ele>210.19</ele>
        <time>2022-09-17T08:01:17Z</time>
      </trkpt>
      <trkpt lat="43.18457" lon="6.03282">
        <ele>211.63</ele>
        <time>2022-09-17T08:01:25Z</time>
      </trkpt>
      <trkpt lat="43.18446" lon="6.03314">
        <ele>213.07</ele>
        <time>2022-09-17T08:01:29Z</time>
      </trkpt>
      <trkpt lat="43.18442" lon="6.03321">
        <ele>213.55</ele>
        <time>2022-09-17T08:01:30Z</time>
      </trkpt>
      <trkpt lat="43.18433" lon="6.03333">
        <ele>213.55</ele>
        <time>2022-09-17T08:01:32Z</time>
      </trkpt>
      <trkpt lat="43.18428" lon="6.03338">
        <ele>213.07</ele>
        <time>2022-09-17T08:01:33Z</time>
      </trkpt>
      <trkpt lat="43.18422" lon="6.03342">
        <ele>213.07</ele>
        <time>2022-09-17T08:01:34Z</time>
      </trkpt>
      <trkpt lat="43.18416" lon="6.03344">
        <ele>213.07</ele>
        <time>2022-09-17T08:01:35Z</time>
      </trkpt>
      <trkpt lat="43.18409" lon="6.03346">
        <ele>212.59</ele>
        <time>2022-09-17T08:01:36Z</time>
      </trkpt>
      <trkpt lat="43.18401" lon="6.03346">
        <ele>212.59</ele>
        <time>2022-09-17T08:01:37Z</time>
      </trkpt>
      <trkpt lat="43.18394" lon="6.03345">
        <ele>212.11</ele>
        <time>2022-09-17T08:01:38Z</time>
      </trkpt>
      <trkpt lat="43.18387" lon="6.03344">
        <ele>212.11</ele>
        <time>2022-09-17T08:01:39Z</time>
      </trkpt>
      <trkpt lat="43.18379" lon="6.03341">
        <ele>211.63</ele>
        <time>2022-09-17T08:01:40Z</time>
      </trkpt>
      <trkpt lat="43.18372" lon="6.03338">
        <ele>211.63</ele>
        <time>2022-09-17T08:01:41Z</time>
      </trkpt>
      <trkpt lat="43.18331" lon="6.03315">
        <ele>211.15</ele>
        <time>2022-09-17T08:01:47Z</time>
      </trkpt>
      <trkpt lat="43.18325" lon="6.03309">
        <ele>210.67</ele>
        <time>2022-09-17T08:01:48Z</time>
      </trkpt>
      <trkpt lat="43.1832" lon="6.03303">
        <ele>210.67</ele>
        <time>2022-09-17T08:01:49Z</time>
      </trkpt>
      <trkpt lat="43.18315" lon="6.03296">
        <ele>210.19</ele>
        <time>2022-09-17T08:01:50Z</time>
      </trkpt>
      <trkpt lat="43.18311" lon="6.03289">
        <ele>209.7</ele>
        <time>2022-09-17T08:01:51Z</time>
      </trkpt>
      <trkpt lat="43.18308" lon="6.0328">
        <ele>209.7</ele>
        <time>2022-09-17T08:01:52Z</time>
      </trkpt>
      <trkpt lat="43.18306" lon="6.03271">
        <ele>209.7</ele>
        <time>2022-09-17T08:01:53Z</time>
      </trkpt>
      <trkpt lat="43.18304" lon="6.03263">
        <ele>209.22</ele>
        <time>2022-09-17T08:01:54Z</time>
      </trkpt>
      <trkpt lat="43.18287" lon="6.03175">
        <ele>207.3</ele>
        <time>2022-09-17T08:02:05Z</time>
      </trkpt>
      <trkpt lat="43.18284" lon="6.0317">
        <ele>206.34</ele>
        <time>2022-09-17T08:02:06Z</time>
      </trkpt>
      <trkpt lat="43.1828" lon="6.03165">
        <ele>204.42</ele>
        <time>2022-09-17T08:02:07Z</time>
      </trkpt>
      <trkpt lat="43.18276" lon="6.03163">
        <ele>203.46</ele>
        <time>2022-09-17T08:02:08Z</time>
      </trkpt>
      <trkpt lat="43.18271" lon="6.03163">
        <ele>202.98</ele>
        <time>2022-09-17T08:02:09Z</time>
      </trkpt>
      <trkpt lat="43.18266" lon="6.03163">
        <ele>202.49</ele>
        <time>2022-09-17T08:02:10Z</time>
      </trkpt>
      <trkpt lat="43.18262" lon="6.03164">
        <ele>202.01</ele>
        <time>2022-09-17T08:02:11Z</time>
      </trkpt>
      <trkpt lat="43.18258" lon="6.03165">
        <ele>202.01</ele>
        <time>2022-09-17T08:02:12Z</time>
      </trkpt>
      <trkpt lat="43.18254" lon="6.03166">
        <ele>201.53</ele>
        <time>2022-09-17T08:02:13Z</time>
      </trkpt>
      <trkpt lat="43.18241" lon="6.03171">
        <ele>200.09</ele>
        <time>2022-09-17T08:02:17Z</time>
      </trkpt>
      <trkpt lat="43.18238" lon="6.03175">
        <ele>200.09</ele>
        <time>2022-09-17T08:02:18Z</time>
      </trkpt>
      <trkpt lat="43.18236" lon="6.03179">
        <ele>199.61</ele>
        <time>2022-09-17T08:02:19Z</time>
      </trkpt>
      <trkpt lat="43.18234" lon="6.03182">
        <ele>199.61</ele>
        <time>2022-09-17T08:02:20Z</time>
      </trkpt>
      <trkpt lat="43.18231" lon="6.03185">
        <ele>199.13</ele>
        <time>2022-09-17T08:02:21Z</time>
      </trkpt>
      <trkpt lat="43.18229" lon="6.03189">
        <ele>199.13</ele>
        <time>2022-09-17T08:02:22Z</time>
      </trkpt>
      <trkpt lat="43.18227" lon="6.03192">
        <ele>198.65</ele>
        <time>2022-09-17T08:02:23Z</time>
      </trkpt>
      <trkpt lat="43.18226" lon="6.03196">
        <ele>198.17</ele>
        <time>2022-09-17T08:02:24Z</time>
      </trkpt>
      <trkpt lat="43.18224" lon="6.03201">
        <ele>198.17</ele>
        <time>2022-09-17T08:02:25Z</time>
      </trkpt>
      <trkpt lat="43.18202" lon="6.0323">
        <ele>197.69</ele>
        <time>2022-09-17T08:02:35Z</time>
      </trkpt>
      <trkpt lat="43.1818" lon="6.0328">
        <ele>204.42</ele>
        <time>2022-09-17T08:02:50Z</time>
      </trkpt>
      <trkpt lat="43.18163" lon="6.03331">
        <ele>213.07</ele>
        <time>2022-09-17T08:03:04Z</time>
      </trkpt>
      <trkpt lat="43.18163" lon="6.03336">
        <ele>213.55</ele>
        <time>2022-09-17T08:03:05Z</time>
      </trkpt>
      <trkpt lat="43.18169" lon="6.03379">
        <ele>216.91</ele>
        <time>2022-09-17T08:03:12Z</time>
      </trkpt>
      <trkpt lat="43.18193" lon="6.03487">
        <ele>221.24</ele>
        <time>2022-09-17T08:03:27Z</time>
      </trkpt>
      <trkpt lat="43.18209" lon="6.03592">
        <ele>221.24</ele>
        <time>2022-09-17T08:03:40Z</time>
      </trkpt>
      <trkpt lat="43.1821" lon="6.036">
        <ele>220.76</ele>
        <time>2022-09-17T08:03:41Z</time>
      </trkpt>
      <trkpt lat="43.18212" lon="6.03608">
        <ele>220.76</ele>
        <time>2022-09-17T08:03:42Z</time>
      </trkpt>
      <trkpt lat="43.18213" lon="6.03616">
        <ele>221.24</ele>
        <time>2022-09-17T08:03:43Z</time>
      </trkpt>
      <trkpt lat="43.18219" lon="6.03711">
        <ele>222.68</ele>
        <time>2022-09-17T08:03:55Z</time>
      </trkpt>
      <trkpt lat="43.18218" lon="6.03719">
        <ele>223.16</ele>
        <time>2022-09-17T08:03:56Z</time>
      </trkpt>
      <trkpt lat="43.18216" lon="6.03726">
        <ele>223.16</ele>
        <time>2022-09-17T08:03:57Z</time>
      </trkpt>
      <trkpt lat="43.18212" lon="6.03733">
        <ele>223.16</ele>
        <time>2022-09-17T08:03:58Z</time>
      </trkpt>
      <trkpt lat="43.18209" lon="6.0374">
        <ele>223.16</ele>
        <time>2022-09-17T08:03:59Z</time>
      </trkpt>
      <trkpt lat="43.18206" lon="6.03746">
        <ele>223.64</ele>
        <time>2022-09-17T08:04:00Z</time>
      </trkpt>
      <trkpt lat="43.18166" lon="6.03844">
        <ele>224.61</ele>
        <time>2022-09-17T08:04:15Z</time>
      </trkpt>
      <trkpt lat="43.18122" lon="6.03958">
        <ele>214.03</ele>
        <time>2022-09-17T08:04:26Z</time>
      </trkpt>
      <trkpt lat="43.18085" lon="6.0406">
        <ele>203.94</ele>
        <time>2022-09-17T08:04:33Z</time>
      </trkpt>
      <trkpt lat="43.18077" lon="6.04073">
        <ele>202.98</ele>
        <time>2022-09-17T08:04:34Z</time>
      </trkpt>
      <trkpt lat="43.18068" lon="6.04084">
        <ele>202.98</ele>
        <time>2022-09-17T08:04:35Z</time>
      </trkpt>
      <trkpt lat="43.18058" lon="6.04093">
        <ele>202.98</ele>
        <time>2022-09-17T08:04:36Z</time>
      </trkpt>
      <trkpt lat="43.18049" lon="6.04102">
        <ele>202.98</ele>
        <time>2022-09-17T08:04:37Z</time>
      </trkpt>
      <trkpt lat="43.17945" lon="6.04176">
        <ele>193.36</ele>
        <time>2022-09-17T08:04:47Z</time>
      </trkpt>
      <trkpt lat="43.1786" lon="6.04232">
        <ele>186.63</ele>
        <time>2022-09-17T08:04:54Z</time>
      </trkpt>
      <trkpt lat="43.17846" lon="6.04236">
        <ele>186.15</ele>
        <time>2022-09-17T08:04:55Z</time>
      </trkpt>
      <trkpt lat="43.17833" lon="6.04238">
        <ele>184.71</ele>
        <time>2022-09-17T08:04:56Z</time>
      </trkpt>
      <trkpt lat="43.17805" lon="6.04242">
        <ele>181.83</ele>
        <time>2022-09-17T08:04:58Z</time>
      </trkpt>
      <trkpt lat="43.17791" lon="6.04248">
        <ele>180.87</ele>
        <time>2022-09-17T08:04:59Z</time>
      </trkpt>
      <trkpt lat="43.17734" lon="6.04276">
        <ele>176.54</ele>
        <time>2022-09-17T08:05:03Z</time>
      </trkpt>
      <trkpt lat="43.17719" lon="6.04279">
        <ele>176.06</ele>
        <time>2022-09-17T08:05:04Z</time>
      </trkpt>
      <trkpt lat="43.17567" lon="6.04271">
        <ele>163.56</ele>
        <time>2022-09-17T08:05:14Z</time>
      </trkpt>
      <trkpt lat="43.17423" lon="6.04205">
        <ele>146.74</ele>
        <time>2022-09-17T08:05:24Z</time>
      </trkpt>
      <trkpt lat="43.17408" lon="6.04198">
        <ele>145.3</ele>
        <time>2022-09-17T08:05:25Z</time>
      </trkpt>
      <trkpt lat="43.17394" lon="6.04192">
        <ele>143.37</ele>
        <time>2022-09-17T08:05:26Z</time>
      </trkpt>
      <trkpt lat="43.17379" lon="6.04188">
        <ele>141.93</ele>
        <time>2022-09-17T08:05:27Z</time>
      </trkpt>
      <trkpt lat="43.17239" lon="6.04183">
        <ele>125.59</ele>
        <time>2022-09-17T08:05:37Z</time>
      </trkpt>
      <trkpt lat="43.17185" lon="6.04164">
        <ele>118.38</ele>
        <time>2022-09-17T08:05:41Z</time>
      </trkpt>
      <trkpt lat="43.17172" lon="6.04156">
        <ele>116.46</ele>
        <time>2022-09-17T08:05:42Z</time>
      </trkpt>
      <trkpt lat="43.17133" lon="6.04129">
        <ele>112.13</ele>
        <time>2022-09-17T08:05:45Z</time>
      </trkpt>
      <trkpt lat="43.1712" lon="6.04124">
        <ele>110.21</ele>
        <time>2022-09-17T08:05:46Z</time>
      </trkpt>
      <trkpt lat="43.17071" lon="6.04109">
        <ele>103.96</ele>
        <time>2022-09-17T08:05:50Z</time>
      </trkpt>
      <trkpt lat="43.1706" lon="6.04111">
        <ele>103.48</ele>
        <time>2022-09-17T08:05:51Z</time>
      </trkpt>
      <trkpt lat="43.17051" lon="6.04119">
        <ele>102.52</ele>
        <time>2022-09-17T08:05:52Z</time>
      </trkpt>
      <trkpt lat="43.17043" lon="6.0413">
        <ele>101.56</ele>
        <time>2022-09-17T08:05:53Z</time>
      </trkpt>
      <trkpt lat="43.17037" lon="6.04144">
        <ele>99.63</ele>
        <time>2022-09-17T08:05:54Z</time>
      </trkpt>
      <trkpt lat="43.17004" lon="6.04202">
        <ele>93.39</ele>
        <time>2022-09-17T08:05:58Z</time>
      </trkpt>
      <trkpt lat="43.16994" lon="6.04215">
        <ele>91.94</ele>
        <time>2022-09-17T08:05:59Z</time>
      </trkpt>
      <trkpt lat="43.16983" lon="6.04225">
        <ele>90.02</ele>
        <time>2022-09-17T08:06:00Z</time>
      </trkpt>
      <trkpt lat="43.16971" lon="6.04235">
        <ele>88.58</ele>
        <time>2022-09-17T08:06:01Z</time>
      </trkpt>
      <trkpt lat="43.1696" lon="6.04244">
        <ele>87.62</ele>
        <time>2022-09-17T08:06:02Z</time>
      </trkpt>
      <trkpt lat="43.16886" lon="6.0429">
        <ele>82.81</ele>
        <time>2022-09-17T08:06:10Z</time>
      </trkpt>
      <trkpt lat="43.16881" lon="6.04292">
        <ele>82.33</ele>
        <time>2022-09-17T08:06:11Z</time>
      </trkpt>
      <trkpt lat="43.16876" lon="6.04293">
        <ele>80.89</ele>
        <time>2022-09-17T08:06:12Z</time>
      </trkpt>
      <trkpt lat="43.16871" lon="6.04291">
        <ele>80.41</ele>
        <time>2022-09-17T08:06:13Z</time>
      </trkpt>
      <trkpt lat="43.16866" lon="6.04287">
        <ele>79.93</ele>
        <time>2022-09-17T08:06:14Z</time>
      </trkpt>
      <trkpt lat="43.16862" lon="6.04283">
        <ele>80.41</ele>
        <time>2022-09-17T08:06:15Z</time>
      </trkpt>
      <trkpt lat="43.16858" lon="6.04277">
        <ele>80.41</ele>
        <time>2022-09-17T08:06:16Z</time>
      </trkpt>
      <trkpt lat="43.16856" lon="6.0427">
        <ele>80.41</ele>
        <time>2022-09-17T08:06:17Z</time>
      </trkpt>
      <trkpt lat="43.16854" lon="6.04264">
        <ele>80.41</ele>
        <time>2022-09-17T08:06:18Z</time>
      </trkpt>
      <trkpt lat="43.16853" lon="6.04257">
        <ele>80.41</ele>
        <time>2022-09-17T08:06:19Z</time>
      </trkpt>
      <trkpt lat="43.16852" lon="6.04251">
        <ele>80.41</ele>
        <time>2022-09-17T08:06:20Z</time>
      </trkpt>
      <trkpt lat="43.16852" lon="6.04245">
        <ele>80.89</ele>
        <time>2022-09-17T08:06:21Z</time>
      </trkpt>
      <trkpt lat="43.16852" lon="6.04239">
        <ele>80.89</ele>
        <time>2022-09-17T08:06:22Z</time>
      </trkpt>
      <trkpt lat="43.16852" lon="6.04233">
        <ele>81.37</ele>
        <time>2022-09-17T08:06:23Z</time>
      </trkpt>
      <trkpt lat="43.16853" lon="6.04228">
        <ele>81.37</ele>
        <time>2022-09-17T08:06:24Z</time>
      </trkpt>
      <trkpt lat="43.16849" lon="6.04167">
        <ele>82.33</ele>
        <time>2022-09-17T08:06:36Z</time>
      </trkpt>
      <trkpt lat="43.16831" lon="6.04094">
        <ele>82.81</ele>
        <time>2022-09-17T08:06:53Z</time>
      </trkpt>
      <trkpt lat="43.1681" lon="6.04042">
        <ele>82.81</ele>
        <time>2022-09-17T08:07:05Z</time>
      </trkpt>
      <trkpt lat="43.16749" lon="6.03951">
        <ele>83.29</ele>
        <time>2022-09-17T08:07:24Z</time>
      </trkpt>
      <trkpt lat="43.16737" lon="6.03929">
        <ele>83.29</ele>
        <time>2022-09-17T08:07:28Z</time>
      </trkpt>
      <trkpt lat="43.16735" lon="6.03923">
        <ele>83.29</ele>
        <time>2022-09-17T08:07:29Z</time>
      </trkpt>
      <trkpt lat="43.16734" lon="6.03917">
        <ele>83.29</ele>
        <time>2022-09-17T08:07:30Z</time>
      </trkpt>
      <trkpt lat="43.16734" lon="6.0391">
        <ele>83.29</ele>
        <time>2022-09-17T08:07:31Z</time>
      </trkpt>
      <trkpt lat="43.16734" lon="6.03904">
        <ele>83.77</ele>
        <time>2022-09-17T08:07:32Z</time>
      </trkpt>
      <trkpt lat="43.16734" lon="6.03871">
        <ele>83.77</ele>
        <time>2022-09-17T08:07:37Z</time>
      </trkpt>
      <trkpt lat="43.16734" lon="6.03865">
        <ele>83.77</ele>
        <time>2022-09-17T08:07:38Z</time>
      </trkpt>
      <trkpt lat="43.16732" lon="6.03859">
        <ele>83.77</ele>
        <time>2022-09-17T08:07:39Z</time>
      </trkpt>
      <trkpt lat="43.1673" lon="6.03854">
        <ele>83.77</ele>
        <time>2022-09-17T08:07:40Z</time>
      </trkpt>
      <trkpt lat="43.16728" lon="6.03848">
        <ele>83.77</ele>
        <time>2022-09-17T08:07:41Z</time>
      </trkpt>
      <trkpt lat="43.16726" lon="6.03843">
        <ele>83.77</ele>
        <time>2022-09-17T08:07:42Z</time>
      </trkpt>
      <trkpt lat="43.16723" lon="6.03839">
        <ele>83.77</ele>
        <time>2022-09-17T08:07:43Z</time>
      </trkpt>
      <trkpt lat="43.16681" lon="6.03766">
        <ele>86.18</ele>
        <time>2022-09-17T08:07:58Z</time>
      </trkpt>
      <trkpt lat="43.16635" lon="6.03674">
        <ele>87.62</ele>
        <time>2022-09-17T08:08:16Z</time>
      </trkpt>
      <trkpt lat="43.16616" lon="6.03649">
        <ele>90.02</ele>
        <time>2022-09-17T08:08:22Z</time>
      </trkpt>
      <trkpt lat="43.16614" lon="6.03645">
        <ele>90.02</ele>
        <time>2022-09-17T08:08:23Z</time>
      </trkpt>
      <trkpt lat="43.16612" lon="6.0364">
        <ele>90.02</ele>
        <time>2022-09-17T08:08:24Z</time>
      </trkpt>
      <trkpt lat="43.16611" lon="6.03634">
        <ele>90.5</ele>
        <time>2022-09-17T08:08:25Z</time>
      </trkpt>
      <trkpt lat="43.16611" lon="6.03629">
        <ele>90.5</ele>
        <time>2022-09-17T08:08:26Z</time>
      </trkpt>
      <trkpt lat="43.16611" lon="6.03623">
        <ele>90.5</ele>
        <time>2022-09-17T08:08:27Z</time>
      </trkpt>
      <trkpt lat="43.16609" lon="6.03618">
        <ele>90.02</ele>
        <time>2022-09-17T08:08:28Z</time>
      </trkpt>
      <trkpt lat="43.16608" lon="6.03613">
        <ele>90.02</ele>
        <time>2022-09-17T08:08:29Z</time>
      </trkpt>
      <trkpt lat="43.16606" lon="6.03608">
        <ele>90.02</ele>
        <time>2022-09-17T08:08:30Z</time>
      </trkpt>
      <trkpt lat="43.16603" lon="6.03603">
        <ele>90.5</ele>
        <time>2022-09-17T08:08:31Z</time>
      </trkpt>
      <trkpt lat="43.16601" lon="6.03598">
        <ele>90.5</ele>
        <time>2022-09-17T08:08:32Z</time>
      </trkpt>
      <trkpt lat="43.16588" lon="6.03567">
        <ele>90.5</ele>
        <time>2022-09-17T08:08:38Z</time>
      </trkpt>
      <trkpt lat="43.16586" lon="6.03562">
        <ele>90.5</ele>
        <time>2022-09-17T08:08:39Z</time>
      </trkpt>
      <trkpt lat="43.16562" lon="6.03485">
        <ele>92.42</ele>
        <time>2022-09-17T08:08:56Z</time>
      </trkpt>
      <trkpt lat="43.16553" lon="6.03435">
        <ele>94.35</ele>
        <time>2022-09-17T08:09:07Z</time>
      </trkpt>
      <trkpt lat="43.16541" lon="6.03369">
        <ele>96.27</ele>
        <time>2022-09-17T08:09:22Z</time>
      </trkpt>
      <trkpt lat="43.16528" lon="6.0329">
        <ele>97.71</ele>
        <time>2022-09-17T08:09:41Z</time>
      </trkpt>
      <trkpt lat="43.1651" lon="6.03227">
        <ele>101.56</ele>
        <time>2022-09-17T08:09:57Z</time>
      </trkpt>
      <trkpt lat="43.16512" lon="6.03224">
        <ele>101.56</ele>
        <time>2022-09-17T08:09:58Z</time>
      </trkpt>
      <trkpt lat="43.16514" lon="6.03222">
        <ele>101.56</ele>
        <time>2022-09-17T08:09:59Z</time>
      </trkpt>
      <trkpt lat="43.16529" lon="6.03174">
        <ele>103.96</ele>
        <time>2022-09-17T08:10:12Z</time>
      </trkpt>
      <trkpt lat="43.16536" lon="6.03077">
        <ele>105.4</ele>
        <time>2022-09-17T08:10:32Z</time>
      </trkpt>
      <trkpt lat="43.16546" lon="6.02996">
        <ele>108.77</ele>
        <time>2022-09-17T08:10:49Z</time>
      </trkpt>
      <trkpt lat="43.16543" lon="6.02928">
        <ele>114.05</ele>
        <time>2022-09-17T08:11:04Z</time>
      </trkpt>
      <trkpt lat="43.16524" lon="6.02887">
        <ele>115.5</ele>
        <time>2022-09-17T08:11:17Z</time>
      </trkpt>
      <trkpt lat="43.165" lon="6.02842">
        <ele>116.94</ele>
        <time>2022-09-17T08:11:31Z</time>
      </trkpt>
      <trkpt lat="43.16477" lon="6.02774">
        <ele>116.46</ele>
        <time>2022-09-17T08:11:49Z</time>
      </trkpt>
      <trkpt lat="43.16478" lon="6.02702">
        <ele>118.38</ele>
        <time>2022-09-17T08:12:06Z</time>
      </trkpt>
    </trkseg>
  </trk>
</gpx>